sensor_id;sensor_type;location;lat;lon;timestamp;P1;durP1;ratioP1;P2;durP2;ratioP2
64313;SDS011;50650;48.180;11.524;2022-12-07T00:02:25;7.28;;;5.53;;
64313;SDS011;50650;48.180;11.524;2022-12-07T00:04:52;10.02;;;5.80;;
64313;SDS011;50650;48.180;11.524;2022-12-07T00:07:18;9.10;;;5.65;;
64313;SDS011;50650;48.180;11.524;2022-12-07T00:09:45;8.45;;;5.78;;
64313;SDS011;50650;48.180;11.524;2022-12-07T00:12:11;8.95;;;5.60;;
64313;SDS011;50650;48.180;11.524;2022-12-07T00:14:39;8.55;;;5.38;;
64313;SDS011;50650;48.180;11.524;2022-12-07T00:17:06;7.13;;;5.47;;
64313;SDS011;50650;48.180;11.524;2022-12-07T00:19:32;8.77;;;5.60;;
64313;SDS011;50650;48.180;11.524;2022-12-07T00:21:59;7.57;;;5.30;;
64313;SDS011;50650;48.180;11.524;2022-12-07T00:24:25;8.55;;;5.68;;
64313;SDS011;50650;48.180;11.524;2022-12-07T00:26:52;12.15;;;5.82;;
64313;SDS011;50650;48.180;11.524;2022-12-07T00:29:19;7.05;;;5.32;;
64313;SDS011;50650;48.180;11.524;2022-12-07T00:31:47;8.05;;;5.22;;
64313;SDS011;50650;48.180;11.524;2022-12-07T00:34:15;9.32;;;5.22;;
64313;SDS011;50650;48.180;11.524;2022-12-07T00:36:42;7.10;;;4.90;;
64313;SDS011;50650;48.180;11.524;2022-12-07T00:39:08;7.35;;;4.97;;
64313;SDS011;50650;48.180;11.524;2022-12-07T00:41:35;8.77;;;5.60;;
64313;SDS011;50650;48.180;11.524;2022-12-07T00:44:01;7.57;;;5.03;;
64313;SDS011;50650;48.180;11.524;2022-12-07T00:46:28;7.93;;;5.68;;
64313;SDS011;50650;48.180;11.524;2022-12-07T00:48:56;7.57;;;5.03;;
64313;SDS011;50650;48.180;11.524;2022-12-07T00:51:24;7.15;;;5.15;;
64313;SDS011;50650;48.180;11.524;2022-12-07T00:53:51;7.78;;;5.07;;
64313;SDS011;50650;48.180;11.524;2022-12-07T00:56:20;8.27;;;5.25;;
64313;SDS011;50650;48.180;11.524;2022-12-07T00:58:51;8.07;;;5.07;;
64313;SDS011;50650;48.180;11.524;2022-12-07T01:01:19;10.52;;;5.90;;
64313;SDS011;50650;48.180;11.524;2022-12-07T01:03:45;7.18;;;5.53;;
64313;SDS011;50650;48.180;11.524;2022-12-07T01:06:14;7.93;;;4.97;;
64313;SDS011;50650;48.180;11.524;2022-12-07T01:08:42;7.00;;;5.00;;
64313;SDS011;50650;48.180;11.524;2022-12-07T01:11:09;7.85;;;5.18;;
64313;SDS011;50650;48.180;11.524;2022-12-07T01:13:39;8.25;;;5.28;;
64313;SDS011;50650;48.180;11.524;2022-12-07T01:16:06;8.18;;;5.35;;
64313;SDS011;50650;48.180;11.524;2022-12-07T01:18:34;7.10;;;4.78;;
64313;SDS011;50650;48.180;11.524;2022-12-07T01:21:01;6.95;;;4.97;;
64313;SDS011;50650;48.180;11.524;2022-12-07T01:23:31;8.57;;;5.47;;
64313;SDS011;50650;48.180;11.524;2022-12-07T01:25:58;7.35;;;5.05;;
64313;SDS011;50650;48.180;11.524;2022-12-07T01:28:26;7.43;;;4.93;;
64313;SDS011;50650;48.180;11.524;2022-12-07T01:30:57;8.88;;;4.90;;
64313;SDS011;50650;48.180;11.524;2022-12-07T01:33:24;7.20;;;4.57;;
64313;SDS011;50650;48.180;11.524;2022-12-07T01:35:52;9.50;;;5.18;;
64313;SDS011;50650;48.180;11.524;2022-12-07T01:38:19;6.75;;;4.80;;
64313;SDS011;50650;48.180;11.524;2022-12-07T01:40:47;8.88;;;5.22;;
64313;SDS011;50650;48.180;11.524;2022-12-07T01:45:46;8.43;;;5.18;;
64313;SDS011;50650;48.180;11.524;2022-12-07T01:48:13;9.35;;;5.15;;
64313;SDS011;50650;48.180;11.524;2022-12-07T01:50:42;8.18;;;4.63;;
64313;SDS011;50650;48.180;11.524;2022-12-07T01:53:09;7.82;;;5.13;;
64313;SDS011;50650;48.180;11.524;2022-12-07T01:55:37;10.13;;;5.13;;
64313;SDS011;50650;48.180;11.524;2022-12-07T01:58:06;8.13;;;4.95;;
64313;SDS011;50650;48.180;11.524;2022-12-07T02:00:33;7.47;;;5.03;;
64313;SDS011;50650;48.180;11.524;2022-12-07T02:03:00;7.38;;;4.93;;
64313;SDS011;50650;48.180;11.524;2022-12-07T02:05:31;7.65;;;4.78;;
64313;SDS011;50650;48.180;11.524;2022-12-07T02:07:58;6.35;;;4.72;;
64313;SDS011;50650;48.180;11.524;2022-12-07T02:10:26;6.43;;;4.65;;
64313;SDS011;50650;48.180;11.524;2022-12-07T02:12:54;6.53;;;5.05;;
64313;SDS011;50650;48.180;11.524;2022-12-07T02:15:25;7.53;;;4.65;;
64313;SDS011;50650;48.180;11.524;2022-12-07T02:17:56;8.57;;;5.13;;
64313;SDS011;50650;48.180;11.524;2022-12-07T02:20:28;10.07;;;5.32;;
64313;SDS011;50650;48.180;11.524;2022-12-07T02:26:09;7.55;;;4.53;;
64313;SDS011;50650;48.180;11.524;2022-12-07T02:29:01;7.35;;;4.68;;
64313;SDS011;50650;48.180;11.524;2022-12-07T02:31:43;8.50;;;5.68;;
64313;SDS011;50650;48.180;11.524;2022-12-07T02:34:14;8.68;;;5.40;;
64313;SDS011;50650;48.180;11.524;2022-12-07T02:36:46;7.65;;;5.20;;
64313;SDS011;50650;48.180;11.524;2022-12-07T02:39:18;8.18;;;5.40;;
64313;SDS011;50650;48.180;11.524;2022-12-07T02:41:49;8.35;;;5.00;;
64313;SDS011;50650;48.180;11.524;2022-12-07T02:44:20;8.55;;;5.05;;
64313;SDS011;50650;48.180;11.524;2022-12-07T02:46:49;7.45;;;5.07;;
64313;SDS011;50650;48.180;11.524;2022-12-07T02:49:18;7.93;;;5.10;;
64313;SDS011;50650;48.180;11.524;2022-12-07T02:51:46;7.38;;;4.90;;
64313;SDS011;50650;48.180;11.524;2022-12-07T02:54:13;6.30;;;4.80;;
64313;SDS011;50650;48.180;11.524;2022-12-07T02:56:43;8.38;;;5.85;;
64313;SDS011;50650;48.180;11.524;2022-12-07T02:59:14;7.40;;;5.30;;
64313;SDS011;50650;48.180;11.524;2022-12-07T03:01:46;6.88;;;4.65;;
64313;SDS011;50650;48.180;11.524;2022-12-07T03:04:22;9.88;;;5.53;;
64313;SDS011;50650;48.180;11.524;2022-12-07T03:06:56;7.78;;;5.57;;
64313;SDS011;50650;48.180;11.524;2022-12-07T03:09:27;7.95;;;5.85;;
64313;SDS011;50650;48.180;11.524;2022-12-07T03:12:00;7.72;;;5.20;;
64313;SDS011;50650;48.180;11.524;2022-12-07T03:14:30;7.45;;;5.32;;
64313;SDS011;50650;48.180;11.524;2022-12-07T03:17:00;8.75;;;5.65;;
64313;SDS011;50650;48.180;11.524;2022-12-07T03:19:30;7.72;;;4.97;;
64313;SDS011;50650;48.180;11.524;2022-12-07T03:21:57;7.30;;;5.15;;
64313;SDS011;50650;48.180;11.524;2022-12-07T03:24:27;6.88;;;4.90;;
64313;SDS011;50650;48.180;11.524;2022-12-07T03:26:57;7.60;;;5.50;;
64313;SDS011;50650;48.180;11.524;2022-12-07T03:29:28;7.50;;;5.28;;
64313;SDS011;50650;48.180;11.524;2022-12-07T03:32:01;9.68;;;5.22;;
64313;SDS011;50650;48.180;11.524;2022-12-07T03:34:31;7.13;;;5.28;;
64313;SDS011;50650;48.180;11.524;2022-12-07T03:37:00;7.18;;;5.07;;
64313;SDS011;50650;48.180;11.524;2022-12-07T03:39:29;8.88;;;5.88;;
64313;SDS011;50650;48.180;11.524;2022-12-07T03:41:59;10.02;;;5.70;;
64313;SDS011;50650;48.180;11.524;2022-12-07T03:44:27;8.70;;;5.55;;
64313;SDS011;50650;48.180;11.524;2022-12-07T03:46:56;7.38;;;5.47;;
64313;SDS011;50650;48.180;11.524;2022-12-07T03:49:30;8.75;;;5.72;;
64313;SDS011;50650;48.180;11.524;2022-12-07T03:52:00;8.60;;;5.18;;
64313;SDS011;50650;48.180;11.524;2022-12-07T03:54:30;10.95;;;5.85;;
64313;SDS011;50650;48.180;11.524;2022-12-07T03:56:58;8.30;;;5.75;;
64313;SDS011;50650;48.180;11.524;2022-12-07T03:59:25;7.82;;;5.40;;
64313;SDS011;50650;48.180;11.524;2022-12-07T04:01:52;9.65;;;6.10;;
64313;SDS011;50650;48.180;11.524;2022-12-07T04:04:21;9.32;;;6.07;;
64313;SDS011;50650;48.180;11.524;2022-12-07T04:06:48;8.80;;;5.85;;
64313;SDS011;50650;48.180;11.524;2022-12-07T04:09:15;8.57;;;5.85;;
64313;SDS011;50650;48.180;11.524;2022-12-07T04:11:41;8.05;;;5.72;;
64313;SDS011;50650;48.180;11.524;2022-12-07T04:14:08;7.82;;;5.80;;
64313;SDS011;50650;48.180;11.524;2022-12-07T04:16:46;12.52;;;6.32;;
64313;SDS011;50650;48.180;11.524;2022-12-07T04:19:13;9.73;;;5.78;;
64313;SDS011;50650;48.180;11.524;2022-12-07T04:21:41;7.65;;;5.65;;
64313;SDS011;50650;48.180;11.524;2022-12-07T04:24:08;9.27;;;5.88;;
64313;SDS011;50650;48.180;11.524;2022-12-07T04:26:34;9.00;;;5.93;;
64313;SDS011;50650;48.180;11.524;2022-12-07T04:29:01;7.38;;;4.90;;
64313;SDS011;50650;48.180;11.524;2022-12-07T04:31:28;9.90;;;5.63;;
64313;SDS011;50650;48.180;11.524;2022-12-07T04:33:54;8.65;;;5.70;;
64313;SDS011;50650;48.180;11.524;2022-12-07T04:36:21;8.05;;;5.40;;
64313;SDS011;50650;48.180;11.524;2022-12-07T04:38:48;8.40;;;5.10;;
64313;SDS011;50650;48.180;11.524;2022-12-07T04:41:15;8.52;;;5.82;;
64313;SDS011;50650;48.180;11.524;2022-12-07T04:43:41;10.27;;;5.53;;
64313;SDS011;50650;48.180;11.524;2022-12-07T04:46:08;8.20;;;5.43;;
64313;SDS011;50650;48.180;11.524;2022-12-07T04:48:34;7.75;;;5.57;;
64313;SDS011;50650;48.180;11.524;2022-12-07T04:51:02;7.90;;;5.63;;
64313;SDS011;50650;48.180;11.524;2022-12-07T04:53:28;7.20;;;5.35;;
64313;SDS011;50650;48.180;11.524;2022-12-07T04:55:56;10.00;;;5.82;;
64313;SDS011;50650;48.180;11.524;2022-12-07T04:58:23;13.52;;;5.93;;
64313;SDS011;50650;48.180;11.524;2022-12-07T05:00:49;10.18;;;6.15;;
64313;SDS011;50650;48.180;11.524;2022-12-07T05:03:16;6.82;;;5.25;;
64313;SDS011;50650;48.180;11.524;2022-12-07T05:05:42;8.93;;;5.70;;
64313;SDS011;50650;48.180;11.524;2022-12-07T05:08:09;8.10;;;5.20;;
64313;SDS011;50650;48.180;11.524;2022-12-07T05:10:35;11.52;;;6.22;;
64313;SDS011;50650;48.180;11.524;2022-12-07T05:13:03;7.13;;;5.00;;
64313;SDS011;50650;48.180;11.524;2022-12-07T05:15:30;7.55;;;5.40;;
64313;SDS011;50650;48.180;11.524;2022-12-07T05:17:56;8.65;;;5.60;;
64313;SDS011;50650;48.180;11.524;2022-12-07T05:20:22;9.07;;;5.97;;
64313;SDS011;50650;48.180;11.524;2022-12-07T05:22:49;8.73;;;5.90;;
64313;SDS011;50650;48.180;11.524;2022-12-07T05:25:16;8.23;;;5.57;;
64313;SDS011;50650;48.180;11.524;2022-12-07T05:27:42;7.80;;;5.75;;
64313;SDS011;50650;48.180;11.524;2022-12-07T05:30:11;7.85;;;5.30;;
64313;SDS011;50650;48.180;11.524;2022-12-07T05:32:38;8.43;;;5.97;;
64313;SDS011;50650;48.180;11.524;2022-12-07T05:35:04;11.13;;;6.70;;
64313;SDS011;50650;48.180;11.524;2022-12-07T05:37:31;9.70;;;6.15;;
64313;SDS011;50650;48.180;11.524;2022-12-07T05:39:58;8.15;;;5.82;;
64313;SDS011;50650;48.180;11.524;2022-12-07T05:42:24;8.88;;;6.72;;
64313;SDS011;50650;48.180;11.524;2022-12-07T05:44:51;9.50;;;6.50;;
64313;SDS011;50650;48.180;11.524;2022-12-07T05:47:19;10.68;;;7.18;;
64313;SDS011;50650;48.180;11.524;2022-12-07T05:49:45;9.52;;;6.32;;
64313;SDS011;50650;48.180;11.524;2022-12-07T05:52:12;9.55;;;6.18;;
64313;SDS011;50650;48.180;11.524;2022-12-07T05:54:38;10.00;;;6.57;;
64313;SDS011;50650;48.180;11.524;2022-12-07T05:57:05;9.38;;;6.90;;
64313;SDS011;50650;48.180;11.524;2022-12-07T05:59:31;9.00;;;6.22;;
64313;SDS011;50650;48.180;11.524;2022-12-07T06:01:57;11.80;;;7.13;;
64313;SDS011;50650;48.180;11.524;2022-12-07T06:04:26;11.60;;;7.60;;
64313;SDS011;50650;48.180;11.524;2022-12-07T06:06:54;12.88;;;8.70;;
64313;SDS011;50650;48.180;11.524;2022-12-07T06:09:21;13.32;;;8.02;;
64313;SDS011;50650;48.180;11.524;2022-12-07T06:11:48;10.65;;;7.38;;
64313;SDS011;50650;48.180;11.524;2022-12-07T06:14:32;10.73;;;6.65;;
64313;SDS011;50650;48.180;11.524;2022-12-07T06:16:59;10.10;;;6.68;;
64313;SDS011;50650;48.180;11.524;2022-12-07T06:19:27;8.82;;;6.28;;
64313;SDS011;50650;48.180;11.524;2022-12-07T06:21:53;9.32;;;6.25;;
64313;SDS011;50650;48.180;11.524;2022-12-07T06:24:20;9.38;;;6.13;;
64313;SDS011;50650;48.180;11.524;2022-12-07T06:26:47;10.35;;;7.07;;
64313;SDS011;50650;48.180;11.524;2022-12-07T06:29:13;9.60;;;6.45;;
64313;SDS011;50650;48.180;11.524;2022-12-07T06:31:40;10.55;;;6.38;;
64313;SDS011;50650;48.180;11.524;2022-12-07T06:34:08;12.15;;;6.32;;
64313;SDS011;50650;48.180;11.524;2022-12-07T06:36:37;11.43;;;7.22;;
64313;SDS011;50650;48.180;11.524;2022-12-07T06:39:04;9.95;;;6.32;;
64313;SDS011;50650;48.180;11.524;2022-12-07T06:41:31;9.90;;;6.72;;
64313;SDS011;50650;48.180;11.524;2022-12-07T06:43:58;8.20;;;5.97;;
64313;SDS011;50650;48.180;11.524;2022-12-07T06:46:24;9.27;;;6.22;;
64313;SDS011;50650;48.180;11.524;2022-12-07T06:48:51;8.13;;;6.45;;
64313;SDS011;50650;48.180;11.524;2022-12-07T06:51:17;10.15;;;6.53;;
64313;SDS011;50650;48.180;11.524;2022-12-07T06:53:46;9.75;;;6.47;;
64313;SDS011;50650;48.180;11.524;2022-12-07T06:56:13;9.52;;;6.43;;
64313;SDS011;50650;48.180;11.524;2022-12-07T06:58:39;9.10;;;6.40;;
64313;SDS011;50650;48.180;11.524;2022-12-07T07:01:08;9.45;;;6.28;;
64313;SDS011;50650;48.180;11.524;2022-12-07T07:03:35;9.32;;;6.32;;
64313;SDS011;50650;48.180;11.524;2022-12-07T07:06:01;9.00;;;6.30;;
64313;SDS011;50650;48.180;11.524;2022-12-07T07:08:28;8.90;;;6.07;;
64313;SDS011;50650;48.180;11.524;2022-12-07T07:10:56;9.63;;;6.50;;
64313;SDS011;50650;48.180;11.524;2022-12-07T07:13:22;9.30;;;6.32;;
64313;SDS011;50650;48.180;11.524;2022-12-07T07:15:49;11.38;;;6.57;;
64313;SDS011;50650;48.180;11.524;2022-12-07T07:18:15;9.40;;;6.57;;
64313;SDS011;50650;48.180;11.524;2022-12-07T07:20:42;10.63;;;6.97;;
64313;SDS011;50650;48.180;11.524;2022-12-07T07:23:08;9.68;;;7.10;;
64313;SDS011;50650;48.180;11.524;2022-12-07T07:25:35;10.20;;;7.20;;
64313;SDS011;50650;48.180;11.524;2022-12-07T07:28:03;10.40;;;7.15;;
64313;SDS011;50650;48.180;11.524;2022-12-07T07:30:30;10.75;;;7.63;;
64313;SDS011;50650;48.180;11.524;2022-12-07T07:32:57;12.25;;;7.38;;
64313;SDS011;50650;48.180;11.524;2022-12-07T07:35:24;11.10;;;7.60;;
64313;SDS011;50650;48.180;11.524;2022-12-07T07:37:50;11.27;;;7.45;;
64313;SDS011;50650;48.180;11.524;2022-12-07T07:40:17;11.23;;;7.32;;
64313;SDS011;50650;48.180;11.524;2022-12-07T07:42:46;9.30;;;7.45;;
64313;SDS011;50650;48.180;11.524;2022-12-07T07:45:14;11.98;;;8.25;;
64313;SDS011;50650;48.180;11.524;2022-12-07T07:47:41;10.68;;;7.53;;
64313;SDS011;50650;48.180;11.524;2022-12-07T07:50:08;11.00;;;7.82;;
64313;SDS011;50650;48.180;11.524;2022-12-07T07:52:35;13.50;;;8.50;;
64313;SDS011;50650;48.180;11.524;2022-12-07T07:55:02;12.82;;;8.18;;
64313;SDS011;50650;48.180;11.524;2022-12-07T07:57:29;12.43;;;9.18;;
64313;SDS011;50650;48.180;11.524;2022-12-07T07:59:55;10.50;;;8.05;;
64313;SDS011;50650;48.180;11.524;2022-12-07T08:02:23;12.90;;;9.07;;
64313;SDS011;50650;48.180;11.524;2022-12-07T08:04:49;11.15;;;7.63;;
64313;SDS011;50650;48.180;11.524;2022-12-07T08:07:16;15.23;;;8.90;;
64313;SDS011;50650;48.180;11.524;2022-12-07T08:09:43;13.43;;;8.77;;
64313;SDS011;50650;48.180;11.524;2022-12-07T08:12:09;12.40;;;8.45;;
64313;SDS011;50650;48.180;11.524;2022-12-07T08:14:36;12.50;;;8.32;;
64313;SDS011;50650;48.180;11.524;2022-12-07T08:17:02;13.23;;;8.85;;
64313;SDS011;50650;48.180;11.524;2022-12-07T08:19:30;11.38;;;8.05;;
64313;SDS011;50650;48.180;11.524;2022-12-07T08:21:57;16.35;;;9.75;;
64313;SDS011;50650;48.180;11.524;2022-12-07T08:24:24;13.60;;;8.50;;
64313;SDS011;50650;48.180;11.524;2022-12-07T08:26:51;13.80;;;9.23;;
64313;SDS011;50650;48.180;11.524;2022-12-07T08:29:18;15.95;;;8.70;;
64313;SDS011;50650;48.180;11.524;2022-12-07T08:31:44;13.50;;;9.27;;
64313;SDS011;50650;48.180;11.524;2022-12-07T08:34:11;15.23;;;8.73;;
64313;SDS011;50650;48.180;11.524;2022-12-07T08:36:39;16.35;;;9.52;;
64313;SDS011;50650;48.180;11.524;2022-12-07T08:39:05;15.63;;;8.50;;
64313;SDS011;50650;48.180;11.524;2022-12-07T08:41:32;13.25;;;8.68;;
64313;SDS011;50650;48.180;11.524;2022-12-07T08:43:59;12.43;;;8.73;;
64313;SDS011;50650;48.180;11.524;2022-12-07T08:46:26;17.63;;;8.85;;
64313;SDS011;50650;48.180;11.524;2022-12-07T08:48:58;13.82;;;8.88;;
64313;SDS011;50650;48.180;11.524;2022-12-07T08:51:28;14.00;;;9.50;;
64313;SDS011;50650;48.180;11.524;2022-12-07T08:53:56;13.50;;;8.38;;
64313;SDS011;50650;48.180;11.524;2022-12-07T08:56:25;13.20;;;9.15;;
64313;SDS011;50650;48.180;11.524;2022-12-07T08:58:51;13.43;;;8.68;;
64313;SDS011;50650;48.180;11.524;2022-12-07T09:01:18;13.70;;;8.35;;
64313;SDS011;50650;48.180;11.524;2022-12-07T09:03:44;12.65;;;9.15;;
64313;SDS011;50650;48.180;11.524;2022-12-07T09:06:11;12.75;;;8.23;;
64313;SDS011;50650;48.180;11.524;2022-12-07T09:08:38;10.73;;;7.43;;
64313;SDS011;50650;48.180;11.524;2022-12-07T09:11:08;12.77;;;8.63;;
64313;SDS011;50650;48.180;11.524;2022-12-07T09:13:35;11.55;;;8.48;;
64313;SDS011;50650;48.180;11.524;2022-12-07T09:16:01;11.15;;;8.15;;
64313;SDS011;50650;48.180;11.524;2022-12-07T09:18:28;13.48;;;8.52;;
64313;SDS011;50650;48.180;11.524;2022-12-07T09:20:55;14.38;;;8.80;;
64313;SDS011;50650;48.180;11.524;2022-12-07T09:23:22;12.45;;;8.13;;
64313;SDS011;50650;48.180;11.524;2022-12-07T09:25:48;10.93;;;8.05;;
64313;SDS011;50650;48.180;11.524;2022-12-07T09:28:16;13.43;;;7.90;;
64313;SDS011;50650;48.180;11.524;2022-12-07T09:30:45;10.18;;;7.97;;
64313;SDS011;50650;48.180;11.524;2022-12-07T09:33:12;13.57;;;8.02;;
64313;SDS011;50650;48.180;11.524;2022-12-07T09:35:38;9.32;;;6.75;;
64313;SDS011;50650;48.180;11.524;2022-12-07T09:38:13;12.18;;;7.25;;
64313;SDS011;50650;48.180;11.524;2022-12-07T09:40:40;9.60;;;7.13;;
64313;SDS011;50650;48.180;11.524;2022-12-07T09:43:11;10.75;;;7.53;;
64313;SDS011;50650;48.180;11.524;2022-12-07T09:45:44;15.40;;;7.80;;
64313;SDS011;50650;48.180;11.524;2022-12-07T09:48:14;9.82;;;7.10;;
64313;SDS011;50650;48.180;11.524;2022-12-07T09:50:43;11.02;;;6.85;;
64313;SDS011;50650;48.180;11.524;2022-12-07T09:53:13;9.80;;;7.20;;
64313;SDS011;50650;48.180;11.524;2022-12-07T09:55:41;14.05;;;7.63;;
64313;SDS011;50650;48.180;11.524;2022-12-07T09:58:09;10.68;;;7.10;;
64313;SDS011;50650;48.180;11.524;2022-12-07T10:00:40;10.48;;;7.63;;
64313;SDS011;50650;48.180;11.524;2022-12-07T10:03:07;10.38;;;7.15;;
64313;SDS011;50650;48.180;11.524;2022-12-07T10:05:34;11.65;;;7.00;;
64313;SDS011;50650;48.180;11.524;2022-12-07T10:08:02;11.25;;;6.78;;
64313;SDS011;50650;48.180;11.524;2022-12-07T10:10:30;10.10;;;7.07;;
64313;SDS011;50650;48.180;11.524;2022-12-07T10:12:58;12.65;;;7.78;;
64313;SDS011;50650;48.180;11.524;2022-12-07T10:15:47;11.70;;;7.10;;
64313;SDS011;50650;48.180;11.524;2022-12-07T10:18:16;10.43;;;7.10;;
64313;SDS011;50650;48.180;11.524;2022-12-07T10:20:44;10.77;;;7.20;;
64313;SDS011;50650;48.180;11.524;2022-12-07T10:23:13;11.73;;;7.47;;
64313;SDS011;50650;48.180;11.524;2022-12-07T10:25:41;11.93;;;7.55;;
64313;SDS011;50650;48.180;11.524;2022-12-07T10:28:12;11.88;;;7.35;;
64313;SDS011;50650;48.180;11.524;2022-12-07T10:30:51;11.60;;;6.75;;
64313;SDS011;50650;48.180;11.524;2022-12-07T10:33:35;10.15;;;6.65;;
64313;SDS011;50650;48.180;11.524;2022-12-07T10:36:15;10.93;;;6.60;;
64313;SDS011;50650;48.180;11.524;2022-12-07T10:38:44;9.63;;;6.03;;
64313;SDS011;50650;48.180;11.524;2022-12-07T10:41:11;10.38;;;6.15;;
64313;SDS011;50650;48.180;11.524;2022-12-07T10:43:41;9.63;;;6.10;;
64313;SDS011;50650;48.180;11.524;2022-12-07T10:46:27;8.88;;;5.38;;
64313;SDS011;50650;48.180;11.524;2022-12-07T10:49:45;9.30;;;5.55;;
64313;SDS011;50650;48.180;11.524;2022-12-07T10:52:21;9.57;;;5.50;;
64313;SDS011;50650;48.180;11.524;2022-12-07T10:54:57;8.45;;;5.57;;
64313;SDS011;50650;48.180;11.524;2022-12-07T10:57:36;12.32;;;5.57;;
64313;SDS011;50650;48.180;11.524;2022-12-07T11:00:11;7.78;;;4.53;;
64313;SDS011;50650;48.180;11.524;2022-12-07T11:02:57;11.23;;;5.20;;
64313;SDS011;50650;48.180;11.524;2022-12-07T11:08:09;7.30;;;5.10;;
64313;SDS011;50650;48.180;11.524;2022-12-07T11:10:41;6.85;;;4.32;;
64313;SDS011;50650;48.180;11.524;2022-12-07T11:13:15;6.65;;;4.40;;
64313;SDS011;50650;48.180;11.524;2022-12-07T11:15:53;6.20;;;4.13;;
64313;SDS011;50650;48.180;11.524;2022-12-07T11:18:43;5.57;;;3.90;;
64313;SDS011;50650;48.180;11.524;2022-12-07T11:21:16;6.78;;;4.13;;
64313;SDS011;50650;48.180;11.524;2022-12-07T11:23:48;7.07;;;4.68;;
64313;SDS011;50650;48.180;11.524;2022-12-07T11:26:18;6.57;;;4.00;;
64313;SDS011;50650;48.180;11.524;2022-12-07T11:34:20;6.45;;;4.30;;
64313;SDS011;50650;48.180;11.524;2022-12-07T11:36:53;5.20;;;3.50;;
64313;SDS011;50650;48.180;11.524;2022-12-07T11:39:22;5.60;;;4.05;;
64313;SDS011;50650;48.180;11.524;2022-12-07T11:41:54;5.40;;;3.70;;
64313;SDS011;50650;48.180;11.524;2022-12-07T11:44:25;7.80;;;4.47;;
64313;SDS011;50650;48.180;11.524;2022-12-07T11:46:57;6.03;;;3.65;;
64313;SDS011;50650;48.180;11.524;2022-12-07T11:49:31;6.20;;;4.00;;
64313;SDS011;50650;48.180;11.524;2022-12-07T11:52:06;7.82;;;4.65;;
64313;SDS011;50650;48.180;11.524;2022-12-07T11:54:40;5.75;;;4.20;;
64313;SDS011;50650;48.180;11.524;2022-12-07T11:57:08;7.18;;;4.22;;
64313;SDS011;50650;48.180;11.524;2022-12-07T11:59:39;6.63;;;4.10;;
64313;SDS011;50650;48.180;11.524;2022-12-07T12:02:11;7.45;;;4.45;;
64313;SDS011;50650;48.180;11.524;2022-12-07T12:04:45;5.45;;;3.70;;
64313;SDS011;50650;48.180;11.524;2022-12-07T12:07:17;6.03;;;4.07;;
64313;SDS011;50650;48.180;11.524;2022-12-07T12:09:48;6.43;;;3.70;;
64313;SDS011;50650;48.180;11.524;2022-12-07T12:12:21;8.05;;;3.92;;
64313;SDS011;50650;48.180;11.524;2022-12-07T12:14:59;5.40;;;3.95;;
64313;SDS011;50650;48.180;11.524;2022-12-07T12:17:47;7.72;;;4.00;;
64313;SDS011;50650;48.180;11.524;2022-12-07T12:20:20;5.70;;;3.67;;
64313;SDS011;50650;48.180;11.524;2022-12-07T12:22:51;6.72;;;4.55;;
64313;SDS011;50650;48.180;11.524;2022-12-07T12:25:20;6.88;;;4.05;;
64313;SDS011;50650;48.180;11.524;2022-12-07T12:27:48;7.50;;;4.85;;
64313;SDS011;50650;48.180;11.524;2022-12-07T12:30:26;6.10;;;4.07;;
64313;SDS011;50650;48.180;11.524;2022-12-07T12:33:01;8.40;;;4.63;;
64313;SDS011;50650;48.180;11.524;2022-12-07T12:35:31;7.05;;;4.43;;
64313;SDS011;50650;48.180;11.524;2022-12-07T12:40:55;6.53;;;4.10;;
64313;SDS011;50650;48.180;11.524;2022-12-07T12:46:36;7.85;;;4.72;;
64313;SDS011;50650;48.180;11.524;2022-12-07T12:49:15;8.68;;;3.97;;
64313;SDS011;50650;48.180;11.524;2022-12-07T12:52:00;6.00;;;4.00;;
64313;SDS011;50650;48.180;11.524;2022-12-07T12:54:29;7.55;;;4.78;;
64313;SDS011;50650;48.180;11.524;2022-12-07T12:56:58;11.05;;;4.65;;
64313;SDS011;50650;48.180;11.524;2022-12-07T12:59:29;6.82;;;4.45;;
64313;SDS011;50650;48.180;11.524;2022-12-07T13:02:06;7.03;;;4.80;;
64313;SDS011;50650;48.180;11.524;2022-12-07T13:10:29;6.18;;;4.15;;
64313;SDS011;50650;48.180;11.524;2022-12-07T13:15:31;5.80;;;4.13;;
64313;SDS011;50650;48.180;11.524;2022-12-07T13:18:01;5.90;;;4.05;;
64313;SDS011;50650;48.180;11.524;2022-12-07T13:20:52;6.90;;;4.32;;
64313;SDS011;50650;48.180;11.524;2022-12-07T13:23:23;10.27;;;4.75;;
64313;SDS011;50650;48.180;11.524;2022-12-07T13:25:51;8.68;;;4.40;;
64313;SDS011;50650;48.180;11.524;2022-12-07T13:28:23;7.05;;;4.80;;
64313;SDS011;50650;48.180;11.524;2022-12-07T13:30:58;9.93;;;4.85;;
64313;SDS011;50650;48.180;11.524;2022-12-07T13:33:28;5.95;;;4.55;;
64313;SDS011;50650;48.180;11.524;2022-12-07T13:35:55;8.02;;;4.63;;
64313;SDS011;50650;48.180;11.524;2022-12-07T13:38:28;7.45;;;4.57;;
64313;SDS011;50650;48.180;11.524;2022-12-07T13:41:04;6.18;;;4.20;;
64313;SDS011;50650;48.180;11.524;2022-12-07T13:43:42;9.07;;;4.90;;
64313;SDS011;50650;48.180;11.524;2022-12-07T13:46:10;8.65;;;4.88;;
64313;SDS011;50650;48.180;11.524;2022-12-07T13:48:44;6.50;;;4.35;;
64313;SDS011;50650;48.180;11.524;2022-12-07T13:51:17;10.60;;;5.20;;
64313;SDS011;50650;48.180;11.524;2022-12-07T13:53:50;6.18;;;4.57;;
64313;SDS011;50650;48.180;11.524;2022-12-07T13:56:18;8.82;;;5.32;;
64313;SDS011;50650;48.180;11.524;2022-12-07T13:58:47;7.45;;;4.97;;
64313;SDS011;50650;48.180;11.524;2022-12-07T14:01:14;11.15;;;4.57;;
64313;SDS011;50650;48.180;11.524;2022-12-07T14:03:40;10.73;;;5.45;;
64313;SDS011;50650;48.180;11.524;2022-12-07T14:06:14;9.05;;;5.40;;
64313;SDS011;50650;48.180;11.524;2022-12-07T14:08:45;7.68;;;4.50;;
64313;SDS011;50650;48.180;11.524;2022-12-07T14:11:17;8.98;;;5.40;;
64313;SDS011;50650;48.180;11.524;2022-12-07T14:13:54;8.18;;;5.20;;
64313;SDS011;50650;48.180;11.524;2022-12-07T14:16:27;11.00;;;5.15;;
64313;SDS011;50650;48.180;11.524;2022-12-07T14:18:55;8.05;;;5.18;;
64313;SDS011;50650;48.180;11.524;2022-12-07T14:21:23;10.30;;;4.80;;
64313;SDS011;50650;48.180;11.524;2022-12-07T14:24:02;7.55;;;4.65;;
64313;SDS011;50650;48.180;11.524;2022-12-07T14:26:36;6.95;;;4.50;;
64313;SDS011;50650;48.180;11.524;2022-12-07T14:29:19;6.47;;;4.45;;
64313;SDS011;50650;48.180;11.524;2022-12-07T14:31:47;7.53;;;4.70;;
64313;SDS011;50650;48.180;11.524;2022-12-07T14:34:13;9.00;;;4.43;;
64313;SDS011;50650;48.180;11.524;2022-12-07T14:36:40;5.75;;;4.20;;
64313;SDS011;50650;48.180;11.524;2022-12-07T14:39:07;7.45;;;4.32;;
64313;SDS011;50650;48.180;11.524;2022-12-07T14:41:33;7.45;;;4.20;;
64313;SDS011;50650;48.180;11.524;2022-12-07T14:44:21;6.82;;;4.07;;
64313;SDS011;50650;48.180;11.524;2022-12-07T14:46:49;6.03;;;3.83;;
64313;SDS011;50650;48.180;11.524;2022-12-07T14:49:16;6.47;;;3.80;;
64313;SDS011;50650;48.180;11.524;2022-12-07T14:51:43;8.32;;;3.38;;
64313;SDS011;50650;48.180;11.524;2022-12-07T14:54:13;6.43;;;3.50;;
64313;SDS011;50650;48.180;11.524;2022-12-07T14:56:42;13.80;;;6.22;;
64313;SDS011;50650;48.180;11.524;2022-12-07T14:59:09;10.80;;;5.22;;
64313;SDS011;50650;48.180;11.524;2022-12-07T15:01:37;7.75;;;4.18;;
64313;SDS011;50650;48.180;11.524;2022-12-07T15:04:04;7.55;;;4.63;;
64313;SDS011;50650;48.180;11.524;2022-12-07T15:06:30;9.07;;;4.63;;
64313;SDS011;50650;48.180;11.524;2022-12-07T15:08:57;10.63;;;4.85;;
64313;SDS011;50650;48.180;11.524;2022-12-07T15:11:27;7.88;;;5.00;;
64313;SDS011;50650;48.180;11.524;2022-12-07T15:13:53;11.63;;;5.10;;